sensor_id;sensor_type;location;lat;lon;timestamp;P1;durP1;ratioP1;P2;durP2;ratioP2
6693;SDS011;3384;42.628;23.380;2022-10-31T00:00:41;2.50;;;2.30;;
6693;SDS011;3384;42.628;23.380;2022-10-31T00:03:08;4.60;;;3.23;;
6693;SDS011;3384;42.628;23.380;2022-10-31T00:05:34;6.47;;;2.73;;
6693;SDS011;3384;42.628;23.380;2022-10-31T00:08:01;3.20;;;3.10;;
6693;SDS011;3384;42.628;23.380;2022-10-31T00:10:30;3.10;;;2.83;;
6693;SDS011;3384;42.628;23.380;2022-10-31T00:12:57;5.53;;;2.90;;
6693;SDS011;3384;42.628;23.380;2022-10-31T00:15:23;3.73;;;3.53;;
6693;SDS011;3384;42.628;23.380;2022-10-31T00:17:50;3.83;;;2.80;;
6693;SDS011;3384;42.628;23.380;2022-10-31T00:20:17;9.47;;;3.80;;
6693;SDS011;3384;42.628;23.380;2022-10-31T00:22:44;3.03;;;2.93;;
6693;SDS011;3384;42.628;23.380;2022-10-31T00:25:10;3.20;;;2.43;;
6693;SDS011;3384;42.628;23.380;2022-10-31T00:27:39;2.97;;;2.87;;
6693;SDS011;3384;42.628;23.380;2022-10-31T00:30:06;11.13;;;2.53;;
6693;SDS011;3384;42.628;23.380;2022-10-31T00:32:33;7.70;;;2.70;;
6693;SDS011;3384;42.628;23.380;2022-10-31T00:35:00;2.60;;;2.40;;
6693;SDS011;3384;42.628;23.380;2022-10-31T00:37:27;3.33;;;2.63;;
6693;SDS011;3384;42.628;23.380;2022-10-31T00:39:53;4.03;;;2.47;;
6693;SDS011;3384;42.628;23.380;2022-10-31T00:42:20;3.00;;;2.80;;
6693;SDS011;3384;42.628;23.380;2022-10-31T00:44:48;3.17;;;3.07;;
6693;SDS011;3384;42.628;23.380;2022-10-31T00:47:15;5.90;;;4.27;;
6693;SDS011;3384;42.628;23.380;2022-10-31T00:49:42;3.73;;;2.90;;
6693;SDS011;3384;42.628;23.380;2022-10-31T00:52:08;8.00;;;3.00;;
6693;SDS011;3384;42.628;23.380;2022-10-31T00:54:35;3.40;;;2.60;;
6693;SDS011;3384;42.628;23.380;2022-10-31T00:57:02;2.57;;;2.47;;
6693;SDS011;3384;42.628;23.380;2022-10-31T00:59:29;3.00;;;2.80;;
6693;SDS011;3384;42.628;23.380;2022-10-31T01:01:57;2.70;;;2.50;;
6693;SDS011;3384;42.628;23.380;2022-10-31T01:04:24;3.90;;;2.50;;
6693;SDS011;3384;42.628;23.380;2022-10-31T01:06:50;6.70;;;3.57;;
6693;SDS011;3384;42.628;23.380;2022-10-31T01:09:17;2.83;;;2.40;;
6693;SDS011;3384;42.628;23.380;2022-10-31T01:11:44;6.30;;;2.83;;
6693;SDS011;3384;42.628;23.380;2022-10-31T01:14:11;2.53;;;2.43;;
6693;SDS011;3384;42.628;23.380;2022-10-31T01:16:38;3.47;;;3.27;;
6693;SDS011;3384;42.628;23.380;2022-10-31T01:19:06;4.33;;;2.80;;
6693;SDS011;3384;42.628;23.380;2022-10-31T01:21:33;2.70;;;2.30;;
6693;SDS011;3384;42.628;23.380;2022-10-31T01:23:59;2.80;;;2.50;;
6693;SDS011;3384;42.628;23.380;2022-10-31T01:26:28;5.10;;;3.07;;
6693;SDS011;3384;42.628;23.380;2022-10-31T01:28:57;4.20;;;2.77;;
6693;SDS011;3384;42.628;23.380;2022-10-31T01:31:25;7.60;;;2.83;;
6693;SDS011;3384;42.628;23.380;2022-10-31T01:33:54;7.63;;;2.50;;
6693;SDS011;3384;42.628;23.380;2022-10-31T01:36:24;4.20;;;2.63;;
6693;SDS011;3384;42.628;23.380;2022-10-31T01:38:54;3.93;;;3.00;;
6693;SDS011;3384;42.628;23.380;2022-10-31T01:41:23;3.40;;;3.07;;
6693;SDS011;3384;42.628;23.380;2022-10-31T01:43:52;9.60;;;3.07;;
6693;SDS011;3384;42.628;23.380;2022-10-31T01:46:22;5.73;;;2.73;;
6693;SDS011;3384;42.628;23.380;2022-10-31T01:48:51;5.53;;;3.23;;
6693;SDS011;3384;42.628;23.380;2022-10-31T01:51:19;3.17;;;2.87;;
6693;SDS011;3384;42.628;23.380;2022-10-31T01:53:50;13.03;;;3.80;;
6693;SDS011;3384;42.628;23.380;2022-10-31T01:56:21;3.00;;;2.90;;
6693;SDS011;3384;42.628;23.380;2022-10-31T01:58:48;4.50;;;3.00;;
6693;SDS011;3384;42.628;23.380;2022-10-31T02:01:15;3.60;;;3.40;;
6693;SDS011;3384;42.628;23.380;2022-10-31T02:03:43;3.00;;;2.87;;
6693;SDS011;3384;42.628;23.380;2022-10-31T02:06:14;3.10;;;2.90;;
6693;SDS011;3384;42.628;23.380;2022-10-31T02:08:50;5.33;;;4.37;;
6693;SDS011;3384;42.628;23.380;2022-10-31T02:11:18;3.63;;;3.20;;
6693;SDS011;3384;42.628;23.380;2022-10-31T02:13:45;3.77;;;3.27;;
6693;SDS011;3384;42.628;23.380;2022-10-31T02:16:13;9.90;;;3.63;;
6693;SDS011;3384;42.628;23.380;2022-10-31T02:18:40;3.77;;;3.57;;
6693;SDS011;3384;42.628;23.380;2022-10-31T02:21:08;3.70;;;3.50;;
6693;SDS011;3384;42.628;23.380;2022-10-31T02:23:48;8.70;;;4.20;;
6693;SDS011;3384;42.628;23.380;2022-10-31T02:26:49;3.60;;;3.40;;
6693;SDS011;3384;42.628;23.380;2022-10-31T02:32:20;3.33;;;3.13;;
6693;SDS011;3384;42.628;23.380;2022-10-31T02:34:55;18.87;;;10.80;;
6693;SDS011;3384;42.628;23.380;2022-10-31T02:37:29;4.53;;;4.20;;
6693;SDS011;3384;42.628;23.380;2022-10-31T02:40:04;5.60;;;4.73;;
6693;SDS011;3384;42.628;23.380;2022-10-31T02:42:38;6.30;;;4.10;;
6693;SDS011;3384;42.628;23.380;2022-10-31T02:45:13;24.00;;;12.90;;
6693;SDS011;3384;42.628;23.380;2022-10-31T02:47:47;3.43;;;3.13;;
6693;SDS011;3384;42.628;23.380;2022-10-31T02:50:17;13.57;;;4.23;;
6693;SDS011;3384;42.628;23.380;2022-10-31T02:52:51;4.83;;;4.17;;
6693;SDS011;3384;42.628;23.380;2022-10-31T02:58:17;10.93;;;3.60;;
6693;SDS011;3384;42.628;23.380;2022-10-31T03:03:39;4.60;;;2.87;;
6693;SDS011;3384;42.628;23.380;2022-10-31T03:06:17;5.83;;;3.40;;
6693;SDS011;3384;42.628;23.380;2022-10-31T03:08:50;9.83;;;3.43;;
6693;SDS011;3384;42.628;23.380;2022-10-31T03:11:22;4.53;;;4.17;;
6693;SDS011;3384;42.628;23.380;2022-10-31T03:13:56;5.57;;;4.30;;
6693;SDS011;3384;42.628;23.380;2022-10-31T03:16:27;4.33;;;3.23;;
6693;SDS011;3384;42.628;23.380;2022-10-31T03:19:05;3.80;;;3.50;;
6693;SDS011;3384;42.628;23.380;2022-10-31T03:21:35;3.57;;;3.27;;
6693;SDS011;3384;42.628;23.380;2022-10-31T03:24:06;5.40;;;3.57;;
6693;SDS011;3384;42.628;23.380;2022-10-31T03:26:36;7.53;;;3.80;;
6693;SDS011;3384;42.628;23.380;2022-10-31T03:29:08;4.20;;;3.80;;
6693;SDS011;3384;42.628;23.380;2022-10-31T03:31:39;5.00;;;4.00;;
6693;SDS011;3384;42.628;23.380;2022-10-31T03:34:14;6.13;;;4.13;;
6693;SDS011;3384;42.628;23.380;2022-10-31T03:36:42;4.10;;;3.80;;
6693;SDS011;3384;42.628;23.380;2022-10-31T03:39:12;3.73;;;3.10;;
6693;SDS011;3384;42.628;23.380;2022-10-31T03:41:43;3.33;;;3.10;;
6693;SDS011;3384;42.628;23.380;2022-10-31T03:44:14;8.13;;;3.37;;
6693;SDS011;3384;42.628;23.380;2022-10-31T03:46:43;7.03;;;3.40;;
6693;SDS011;3384;42.628;23.380;2022-10-31T03:49:11;4.50;;;3.83;;
6693;SDS011;3384;42.628;23.380;2022-10-31T03:51:42;3.53;;;3.33;;
6693;SDS011;3384;42.628;23.380;2022-10-31T03:54:15;7.67;;;3.60;;
6693;SDS011;3384;42.628;23.380;2022-10-31T03:56:49;4.50;;;3.13;;
6693;SDS011;3384;42.628;23.380;2022-10-31T03:59:21;3.90;;;3.27;;
6693;SDS011;3384;42.628;23.380;2022-10-31T04:01:53;3.57;;;3.27;;
6693;SDS011;3384;42.628;23.380;2022-10-31T04:04:23;7.03;;;3.60;;
6693;SDS011;3384;42.628;23.380;2022-10-31T04:06:53;6.83;;;4.20;;
6693;SDS011;3384;42.628;23.380;2022-10-31T04:09:24;4.23;;;2.70;;
6693;SDS011;3384;42.628;23.380;2022-10-31T04:11:53;4.83;;;3.67;;
6693;SDS011;3384;42.628;23.380;2022-10-31T04:14:23;3.20;;;2.90;;
6693;SDS011;3384;42.628;23.380;2022-10-31T04:16:52;8.20;;;3.20;;
6693;SDS011;3384;42.628;23.380;2022-10-31T04:19:19;5.93;;;3.43;;
6693;SDS011;3384;42.628;23.380;2022-10-31T04:21:45;6.83;;;3.23;;
6693;SDS011;3384;42.628;23.380;2022-10-31T04:24:14;16.13;;;3.20;;
6693;SDS011;3384;42.628;23.380;2022-10-31T04:26:40;7.73;;;4.43;;
6693;SDS011;3384;42.628;23.380;2022-10-31T04:29:07;4.23;;;3.93;;
6693;SDS011;3384;42.628;23.380;2022-10-31T04:31:34;3.77;;;3.40;;
6693;SDS011;3384;42.628;23.380;2022-10-31T04:34:00;4.87;;;4.20;;
6693;SDS011;3384;42.628;23.380;2022-10-31T04:36:27;3.30;;;3.10;;
6693;SDS011;3384;42.628;23.380;2022-10-31T04:38:54;8.50;;;4.87;;
6693;SDS011;3384;42.628;23.380;2022-10-31T04:41:22;6.10;;;4.47;;
6693;SDS011;3384;42.628;23.380;2022-10-31T04:43:49;4.70;;;4.40;;
6693;SDS011;3384;42.628;23.380;2022-10-31T04:46:16;4.83;;;4.20;;
6693;SDS011;3384;42.628;23.380;2022-10-31T04:48:43;5.33;;;4.93;;
6693;SDS011;3384;42.628;23.380;2022-10-31T04:51:09;4.57;;;4.27;;
6693;SDS011;3384;42.628;23.380;2022-10-31T04:53:36;8.83;;;4.03;;
6693;SDS011;3384;42.628;23.380;2022-10-31T04:56:03;7.87;;;5.67;;
6693;SDS011;3384;42.628;23.380;2022-10-31T04:58:31;7.27;;;3.53;;
6693;SDS011;3384;42.628;23.380;2022-10-31T05:00:58;5.37;;;5.00;;
6693;SDS011;3384;42.628;23.380;2022-10-31T05:03:25;17.33;;;7.80;;
6693;SDS011;3384;42.628;23.380;2022-10-31T05:05:52;8.07;;;6.73;;
6693;SDS011;3384;42.628;23.380;2022-10-31T05:08:18;12.13;;;7.80;;
6693;SDS011;3384;42.628;23.380;2022-10-31T05:10:45;9.10;;;7.37;;
6693;SDS011;3384;42.628;23.380;2022-10-31T05:13:12;8.20;;;6.50;;
6693;SDS011;3384;42.628;23.380;2022-10-31T05:15:41;12.37;;;5.27;;
6693;SDS011;3384;42.628;23.380;2022-10-31T05:18:07;7.67;;;6.67;;
6693;SDS011;3384;42.628;23.380;2022-10-31T05:20:34;10.80;;;8.47;;
6693;SDS011;3384;42.628;23.380;2022-10-31T05:23:01;17.23;;;7.93;;
6693;SDS011;3384;42.628;23.380;2022-10-31T05:25:28;7.00;;;5.40;;
6693;SDS011;3384;42.628;23.380;2022-10-31T05:27:55;8.30;;;5.27;;
6693;SDS011;3384;42.628;23.380;2022-10-31T05:30:23;11.97;;;6.17;;
6693;SDS011;3384;42.628;23.380;2022-10-31T05:32:56;22.80;;;7.70;;
6693;SDS011;3384;42.628;23.380;2022-10-31T05:35:24;11.43;;;6.37;;
6693;SDS011;3384;42.628;23.380;2022-10-31T05:37:52;16.97;;;7.00;;
6693;SDS011;3384;42.628;23.380;2022-10-31T05:40:19;7.37;;;5.40;;
6693;SDS011;3384;42.628;23.380;2022-10-31T05:42:47;19.60;;;9.17;;
6693;SDS011;3384;42.628;23.380;2022-10-31T05:45:17;8.00;;;5.00;;
6693;SDS011;3384;42.628;23.380;2022-10-31T05:47:49;13.27;;;5.60;;
6693;SDS011;3384;42.628;23.380;2022-10-31T05:50:18;10.03;;;5.47;;
6693;SDS011;3384;42.628;23.380;2022-10-31T05:52:45;8.93;;;5.10;;
6693;SDS011;3384;42.628;23.380;2022-10-31T05:55:12;6.70;;;4.60;;
6693;SDS011;3384;42.628;23.380;2022-10-31T05:57:39;7.10;;;5.77;;
6693;SDS011;3384;42.628;23.380;2022-10-31T06:00:06;19.00;;;7.03;;
6693;SDS011;3384;42.628;23.380;2022-10-31T06:02:34;8.73;;;6.00;;
6693;SDS011;3384;42.628;23.380;2022-10-31T06:05:01;17.83;;;5.97;;
6693;SDS011;3384;42.628;23.380;2022-10-31T06:07:33;14.90;;;6.07;;
6693;SDS011;3384;42.628;23.380;2022-10-31T06:10:00;11.00;;;7.13;;
6693;SDS011;3384;42.628;23.380;2022-10-31T06:12:27;11.07;;;4.57;;
6693;SDS011;3384;42.628;23.380;2022-10-31T06:14:54;19.33;;;6.77;;
6693;SDS011;3384;42.628;23.380;2022-10-31T06:17:21;15.77;;;5.43;;
6693;SDS011;3384;42.628;23.380;2022-10-31T06:19:48;10.70;;;5.20;;
6693;SDS011;3384;42.628;23.380;2022-10-31T06:22:15;9.07;;;5.83;;
6693;SDS011;3384;42.628;23.380;2022-10-31T06:24:43;16.60;;;7.43;;
6693;SDS011;3384;42.628;23.380;2022-10-31T06:27:10;18.53;;;7.43;;
6693;SDS011;3384;42.628;23.380;2022-10-31T06:29:39;11.80;;;6.30;;
6693;SDS011;3384;42.628;23.380;2022-10-31T06:32:08;22.63;;;8.40;;
6693;SDS011;3384;42.628;23.380;2022-10-31T06:34:36;7.30;;;5.27;;
6693;SDS011;3384;42.628;23.380;2022-10-31T06:37:02;11.33;;;5.80;;
6693;SDS011;3384;42.628;23.380;2022-10-31T06:39:29;8.27;;;5.60;;
6693;SDS011;3384;42.628;23.380;2022-10-31T06:41:57;10.00;;;5.50;;
6693;SDS011;3384;42.628;23.380;2022-10-31T06:44:24;11.53;;;6.30;;
6693;SDS011;3384;42.628;23.380;2022-10-31T06:46:51;16.17;;;7.07;;
6693;SDS011;3384;42.628;23.380;2022-10-31T06:49:18;11.10;;;7.43;;
6693;SDS011;3384;42.628;23.380;2022-10-31T06:51:46;12.33;;;8.33;;
6693;SDS011;3384;42.628;23.380;2022-10-31T06:54:13;9.47;;;6.50;;
6693;SDS011;3384;42.628;23.380;2022-10-31T06:56:40;15.00;;;7.47;;
6693;SDS011;3384;42.628;23.380;2022-10-31T06:59:09;8.83;;;6.17;;
6693;SDS011;3384;42.628;23.380;2022-10-31T07:01:35;9.23;;;5.20;;
6693;SDS011;3384;42.628;23.380;2022-10-31T07:04:10;8.50;;;5.20;;
6693;SDS011;3384;42.628;23.380;2022-10-31T07:06:37;7.97;;;5.03;;
6693;SDS011;3384;42.628;23.380;2022-10-31T07:09:04;5.07;;;4.60;;
6693;SDS011;3384;42.628;23.380;2022-10-31T07:11:31;12.87;;;5.63;;
6693;SDS011;3384;42.628;23.380;2022-10-31T07:13:59;34.07;;;7.23;;
6693;SDS011;3384;42.628;23.380;2022-10-31T07:16:33;8.30;;;7.43;;
6693;SDS011;3384;42.628;23.380;2022-10-31T07:19:03;11.97;;;8.33;;
6693;SDS011;3384;42.628;23.380;2022-10-31T07:46:21;21.90;;;10.67;;
6693;SDS011;3384;42.628;23.380;2022-10-31T07:48:53;20.73;;;11.07;;
6693;SDS011;3384;42.628;23.380;2022-10-31T07:53:59;26.43;;;11.63;;
6693;SDS011;3384;42.628;23.380;2022-10-31T07:56:26;17.10;;;11.10;;
6693;SDS011;3384;42.628;23.380;2022-10-31T07:59:01;20.57;;;11.90;;
6693;SDS011;3384;42.628;23.380;2022-10-31T08:01:31;23.07;;;12.03;;
6693;SDS011;3384;42.628;23.380;2022-10-31T08:04:00;14.17;;;12.23;;
6693;SDS011;3384;42.628;23.380;2022-10-31T08:06:27;18.53;;;12.00;;
6693;SDS011;3384;42.628;23.380;2022-10-31T08:08:55;19.10;;;12.07;;
6693;SDS011;3384;42.628;23.380;2022-10-31T08:11:21;17.23;;;12.17;;
6693;SDS011;3384;42.628;23.380;2022-10-31T08:13:48;17.73;;;11.53;;
6693;SDS011;3384;42.628;23.380;2022-10-31T08:16:15;16.33;;;12.33;;
6693;SDS011;3384;42.628;23.380;2022-10-31T08:18:43;20.77;;;13.20;;
6693;SDS011;3384;42.628;23.380;2022-10-31T08:21:12;15.13;;;11.60;;
6693;SDS011;3384;42.628;23.380;2022-10-31T08:23:38;25.30;;;12.40;;
6693;SDS011;3384;42.628;23.380;2022-10-31T08:26:05;29.07;;;12.53;;
6693;SDS011;3384;42.628;23.380;2022-10-31T08:28:35;15.00;;;11.10;;
6693;SDS011;3384;42.628;23.380;2022-10-31T08:31:02;39.27;;;13.17;;
6693;SDS011;3384;42.628;23.380;2022-10-31T08:33:29;15.07;;;11.03;;
6693;SDS011;3384;42.628;23.380;2022-10-31T08:35:58;12.70;;;11.40;;
6693;SDS011;3384;42.628;23.380;2022-10-31T08:38:25;18.50;;;11.77;;
6693;SDS011;3384;42.628;23.380;2022-10-31T08:40:52;13.30;;;11.83;;
6693;SDS011;3384;42.628;23.380;2022-10-31T08:43:19;16.93;;;11.20;;
6693;SDS011;3384;42.628;23.380;2022-10-31T08:45:49;18.20;;;11.27;;
6693;SDS011;3384;42.628;23.380;2022-10-31T08:48:18;17.27;;;10.60;;
6693;SDS011;3384;42.628;23.380;2022-10-31T08:50:45;16.53;;;11.90;;
6693;SDS011;3384;42.628;23.380;2022-10-31T08:53:14;17.43;;;11.37;;
6693;SDS011;3384;42.628;23.380;2022-10-31T08:55:45;18.83;;;12.37;;
6693;SDS011;3384;42.628;23.380;2022-10-31T08:58:15;16.87;;;11.47;;
6693;SDS011;3384;42.628;23.380;2022-10-31T09:03:58;21.80;;;11.53;;
6693;SDS011;3384;42.628;23.380;2022-10-31T09:06:35;17.10;;;10.40;;
6693;SDS011;3384;42.628;23.380;2022-10-31T09:09:03;19.27;;;9.37;;
6693;SDS011;3384;42.628;23.380;2022-10-31T09:11:30;9.43;;;8.53;;
6693;SDS011;3384;42.628;23.380;2022-10-31T09:14:18;22.07;;;10.00;;
6693;SDS011;3384;42.628;23.380;2022-10-31T09:16:48;13.07;;;11.60;;
6693;SDS011;3384;42.628;23.380;2022-10-31T09:19:23;10.07;;;9.17;;
6693;SDS011;3384;42.628;23.380;2022-10-31T09:21:51;18.97;;;9.80;;
6693;SDS011;3384;42.628;23.380;2022-10-31T09:24:22;11.10;;;9.20;;
6693;SDS011;3384;42.628;23.380;2022-10-31T09:29:24;10.50;;;9.43;;
6693;SDS011;3384;42.628;23.380;2022-10-31T09:31:55;18.20;;;10.17;;
6693;SDS011;3384;42.628;23.380;2022-10-31T09:34:42;16.07;;;11.03;;
6693;SDS011;3384;42.628;23.380;2022-10-31T09:39:45;18.07;;;8.53;;
6693;SDS011;3384;42.628;23.380;2022-10-31T09:42:19;17.97;;;8.90;;
6693;SDS011;3384;42.628;23.380;2022-10-31T09:44:59;8.93;;;8.03;;
6693;SDS011;3384;42.628;23.380;2022-10-31T09:47:35;15.83;;;10.67;;
6693;SDS011;3384;42.628;23.380;2022-10-31T09:50:21;19.57;;;9.73;;
6693;SDS011;3384;42.628;23.380;2022-10-31T09:52:54;16.40;;;9.53;;
6693;SDS011;3384;42.628;23.380;2022-10-31T09:55:35;16.50;;;8.60;;
6693;SDS011;3384;42.628;23.380;2022-10-31T09:58:05;13.53;;;8.40;;
6693;SDS011;3384;42.628;23.380;2022-10-31T10:00:40;10.13;;;7.27;;
6693;SDS011;3384;42.628;23.380;2022-10-31T10:03:10;15.63;;;8.80;;
6693;SDS011;3384;42.628;23.380;2022-10-31T10:05:49;14.43;;;7.53;;
6693;SDS011;3384;42.628;23.380;2022-10-31T10:08:23;9.97;;;6.10;;
6693;SDS011;3384;42.628;23.380;2022-10-31T10:10:57;25.43;;;5.50;;
6693;SDS011;3384;42.628;23.380;2022-10-31T10:13:38;6.67;;;5.20;;
6693;SDS011;3384;42.628;23.380;2022-10-31T10:16:19;8.07;;;7.30;;
6693;SDS011;3384;42.628;23.380;2022-10-31T10:19:13;5.37;;;3.70;;
6693;SDS011;3384;42.628;23.380;2022-10-31T10:21:48;4.27;;;3.93;;
6693;SDS011;3384;42.628;23.380;2022-10-31T10:24:26;6.03;;;4.87;;
6693;SDS011;3384;42.628;23.380;2022-10-31T10:27:08;7.57;;;4.23;;
6693;SDS011;3384;42.628;23.380;2022-10-31T10:29:44;10.03;;;4.00;;
6693;SDS011;3384;42.628;23.380;2022-10-31T10:32:18;4.90;;;3.73;;
6693;SDS011;3384;42.628;23.380;2022-10-31T10:34:50;5.30;;;4.90;;
6693;SDS011;3384;42.628;23.380;2022-10-31T10:37:23;13.10;;;4.93;;
6693;SDS011;3384;42.628;23.380;2022-10-31T10:40:06;10.43;;;4.87;;
6693;SDS011;3384;42.628;23.380;2022-10-31T10:42:40;7.73;;;4.23;;
6693;SDS011;3384;42.628;23.380;2022-10-31T10:45:28;6.80;;;5.07;;
6693;SDS011;3384;42.628;23.380;2022-10-31T10:48:14;4.73;;;3.00;;
6693;SDS011;3384;42.628;23.380;2022-10-31T10:50:46;7.63;;;3.50;;
6693;SDS011;3384;42.628;23.380;2022-10-31T10:53:21;12.53;;;3.40;;
6693;SDS011;3384;42.628;23.380;2022-10-31T10:56:26;8.00;;;2.63;;
6693;SDS011;3384;42.628;23.380;2022-10-31T10:59:03;4.97;;;3.40;;
6693;SDS011;3384;42.628;23.380;2022-10-31T11:01:30;13.43;;;4.63;;
6693;SDS011;3384;42.628;23.380;2022-10-31T11:03:57;14.50;;;3.50;;
6693;SDS011;3384;42.628;23.380;2022-10-31T11:06:27;8.63;;;3.20;;
6693;SDS011;3384;42.628;23.380;2022-10-31T11:08:54;3.83;;;3.53;;
6693;SDS011;3384;42.628;23.380;2022-10-31T11:11:25;5.63;;;4.47;;
6693;SDS011;3384;42.628;23.380;2022-10-31T11:13:56;11.00;;;3.03;;
6693;SDS011;3384;42.628;23.380;2022-10-31T11:16:30;4.60;;;2.87;;
6693;SDS011;3384;42.628;23.380;2022-10-31T11:19:06;5.17;;;3.27;;
6693;SDS011;3384;42.628;23.380;2022-10-31T11:21:44;4.97;;;3.67;;
6693;SDS011;3384;42.628;23.380;2022-10-31T11:24:15;5.90;;;3.40;;
6693;SDS011;3384;42.628;23.380;2022-10-31T11:26:45;3.90;;;2.60;;
6693;SDS011;3384;42.628;23.380;2022-10-31T11:29:14;4.20;;;2.93;;
6693;SDS011;3384;42.628;23.380;2022-10-31T11:31:44;2.80;;;2.30;;
6693;SDS011;3384;42.628;23.380;2022-10-31T11:34:18;3.33;;;3.03;;
6693;SDS011;3384;42.628;23.380;2022-10-31T11:36:57;7.13;;;2.33;;
6693;SDS011;3384;42.628;23.380;2022-10-31T11:39:30;14.03;;;3.03;;
6693;SDS011;3384;42.628;23.380;2022-10-31T11:41:59;2.43;;;2.23;;
6693;SDS011;3384;42.628;23.380;2022-10-31T11:44:29;3.17;;;2.87;;
6693;SDS011;3384;42.628;23.380;2022-10-31T11:52:21;2.27;;;2.07;;
6693;SDS011;3384;42.628;23.380;2022-10-31T12:13:03;5.47;;;3.47;;
6693;SDS011;3384;42.628;23.380;2022-10-31T12:15:44;4.67;;;2.93;;
6693;SDS011;3384;42.628;23.380;2022-10-31T12:18:24;7.70;;;3.07;;
6693;SDS011;3384;42.628;23.380;2022-10-31T12:21:10;3.40;;;2.70;;
6693;SDS011;3384;42.628;23.380;2022-10-31T12:23:50;10.83;;;2.90;;
6693;SDS011;3384;42.628;23.380;2022-10-31T12:26:32;8.73;;;3.27;;
6693;SDS011;3384;42.628;23.380;2022-10-31T12:29:10;4.20;;;3.73;;
6693;SDS011;3384;42.628;23.380;2022-10-31T12:31:52;7.60;;;3.20;;
6693;SDS011;3384;42.628;23.380;2022-10-31T12:34:37;3.00;;;2.73;;
6693;SDS011;3384;42.628;23.380;2022-10-31T12:37:15;23.53;;;3.00;;
6693;SDS011;3384;42.628;23.380;2022-10-31T12:39:54;8.90;;;2.90;;
6693;SDS011;3384;42.628;23.380;2022-10-31T12:42:34;3.33;;;3.03;;
6693;SDS011;3384;42.628;23.380;2022-10-31T12:45:27;5.23;;;2.43;;
6693;SDS011;3384;42.628;23.380;2022-10-31T12:51:09;7.23;;;3.13;;
6693;SDS011;3384;42.628;23.380;2022-10-31T12:53:45;9.60;;;2.60;;
6693;SDS011;3384;42.628;23.380;2022-10-31T12:56:27;4.30;;;2.33;;
6693;SDS011;3384;42.628;23.380;2022-10-31T12:59:07;16.33;;;3.10;;
6693;SDS011;3384;42.628;23.380;2022-10-31T13:01:40;4.93;;;2.20;;
6693;SDS011;3384;42.628;23.380;2022-10-31T13:04:15;4.10;;;2.90;;
6693;SDS011;3384;42.628;23.380;2022-10-31T13:06:47;4.80;;;2.73;;
6693;SDS011;3384;42.628;23.380;2022-10-31T13:09:17;10.13;;;3.10;;
6693;SDS011;3384;42.628;23.380;2022-10-31T13:11:50;16.20;;;3.70;;
6693;SDS011;3384;42.628;23.380;2022-10-31T13:14:23;12.30;;;2.33;;
6693;SDS011;3384;42.628;23.380;2022-10-31T13:16:55;6.43;;;2.90;;
6693;SDS011;3384;42.628;23.380;2022-10-31T13:19:24;8.20;;;2.93;;
6693;SDS011;3384;42.628;23.380;2022-10-31T13:24:33;4.00;;;3.20;;
6693;SDS011;3384;42.628;23.380;2022-10-31T13:29:35;7.53;;;2.80;;
6693;SDS011;3384;42.628;23.380;2022-10-31T13:48:47;9.90;;;3.60;;
6693;SDS011;3384;42.628;23.380;2022-10-31T13:59:36;4.60;;;3.17;;
6693;SDS011;3384;42.628;23.380;2022-10-31T14:02:12;6.60;;;3.40;;
6693;SDS011;3384;42.628;23.380;2022-10-31T14:04:46;10.10;;;3.73;;
6693;SDS011;3384;42.628;23.380;2022-10-31T14:07:15;8.73;;;4.30;;
6693;SDS011;3384;42.628;23.380;2022-10-31T14:09:50;6.90;;;3.33;;
6693;SDS011;3384;42.628;23.380;2022-10-31T14:12:23;6.00;;;2.90;;
6693;SDS011;3384;42.628;23.380;2022-10-31T14:14:55;12.40;;;3.93;;
6693;SDS011;3384;42.628;23.380;2022-10-31T14:17:27;12.17;;;4.40;;
6693;SDS011;3384;42.628;23.380;2022-10-31T14:31:57;16.90;;;3.97;;
6693;SDS011;3384;42.628;23.380;2022-10-31T14:34:33;7.70;;;4.37;;
6693;SDS011;3384;42.628;23.380;2022-10-31T14:37:13;9.03;;;4.50;;
6693;SDS011;3384;42.628;23.380;2022-10-31T14:42:51;6.83;;;3.23;;
6693;SDS011;3384;42.628;23.380;2022-10-31T14:45:42;12.20;;;4.03;;
6693;SDS011;3384;42.628;23.380;2022-10-31T14:48:29;7.20;;;3.33;;
6693;SDS011;3384;42.628;23.380;2022-10-31T14:51:08;9.17;;;3.17;;
6693;SDS011;3384;42.628;23.380;2022-10-31T14:53:41;12.63;;;3.43;;
6693;SDS011;3384;42.628;23.380;2022-10-31T14:58:44;5.97;;;3.33;;
6693;SDS011;3384;42.628;23.380;2022-10-31T15:01:16;8.30;;;4.00;;
6693;SDS011;3384;42.628;23.380;2022-10-31T15:03:48;8.40;;;3.43;;
6693;SDS011;3384;42.628;23.380;2022-10-31T15:06:16;9.60;;;4.47;;
6693;SDS011;3384;42.628;23.380;2022-10-31T15:08:49;8.67;;;3.90;;
6693;SDS011;3384;42.628;23.380;2022-10-31T15:11:18;10.10;;;4.03;;
6693;SDS011;3384;42.628;23.380;2022-10-31T15:13:47;13.63;;;4.03;;
6693;SDS011;3384;42.628;23.380;2022-10-31T15:21:31;11.77;;;3.63;;
6693;SDS011;3384;42.628;23.380;2022-10-31T15:24:01;11.60;;;3.10;;
6693;SDS011;3384;42.628;23.380;2022-10-31T15:26:31;19.83;;;3.63;;
6693;SDS011;3384;42.628;23.380;2022-10-31T15:29:02;8.83;;;3.20;;
6693;SDS011;3384;42.628;23.380;2022-10-31T15:31:30;11.33;;;4.80;;
6693;SDS011;3384;42.628;23.380;2022-10-31T15:33:58;21.70;;;4.73;;
6693;SDS011;3384;42.628;23.380;2022-10-31T15:36:29;37.67;;;14.50;;
6693;SDS011;3384;42.628;23.380;2022-10-31T15:38:56;24.93;;;11.23;;
6693;SDS011;3384;42.628;23.380;2022-10-31T15:41:31;33.67;;;9.87;;
6693;SDS011;3384;42.628;23.380;2022-10-31T15:44:02;40.10;;;9.17;;
6693;SDS011;3384;42.628;23.380;2022-10-31T15:46:33;27.90;;;9.37;;
6693;SDS011;3384;42.628;23.380;2022-10-31T15:49:00;17.93;;;7.90;;
6693;SDS011;3384;42.628;23.380;2022-10-31T15:51:28;27.77;;;6.50;;
6693;SDS011;3384;42.628;23.380;2022-10-31T15:53:57;26.63;;;7.20;;
6693;SDS011;3384;42.628;23.380;2022-10-31T15:56:26;27.07;;;6.63;;
6693;SDS011;3384;42.628;23.380;2022-10-31T15:58:58;21.80;;;7.60;;
6693;SDS011;3384;42.628;23.380;2022-10-31T16:01:26;26.97;;;7.57;;
6693;SDS011;3384;42.628;23.380;2022-10-31T16:03:58;21.67;;;6.60;;
6693;SDS011;3384;42.628;23.380;2022-10-31T16:06:26;8.63;;;5.50;;
6693;SDS011;3384;42.628;23.380;2022-10-31T16:08:54;16.20;;;6.83;;
6693;SDS011;3384;42.628;23.380;2022-10-31T16:11:22;11.47;;;7.13;;
6693;SDS011;3384;42.628;23.380;2022-10-31T16:13:55;18.03;;;6.77;;
6693;SDS011;3384;42.628;23.380;2022-10-31T16:16:26;28.53;;;8.60;;
6693;SDS011;3384;42.628;23.380;2022-10-31T16:18:55;22.73;;;7.30;;
6693;SDS011;3384;42.628;23.380;2022-10-31T16:21:23;23.63;;;7.30;;
6693;SDS011;3384;42.628;23.380;2022-10-31T16:23:55;25.03;;;7.43;;
6693;SDS011;3384;42.628;23.380;2022-10-31T16:26:25;20.00;;;9.57;;
6693;SDS011;3384;42.628;23.380;2022-10-31T16:28:53;36.83;;;11.23;;
6693;SDS011;3384;42.628;23.380;2022-10-31T16:31:27;52.50;;;12.30;;
6693;SDS011;3384;42.628;23.380;2022-10-31T16:34:03;46.03;;;10.83;;
6693;SDS011;3384;42.628;23.380;2022-10-31T16:36:36;38.50;;;8.57;;
6693;SDS011;3384;42.628;23.380;2022-10-31T16:39:05;26.43;;;8.27;;
6693;SDS011;3384;42.628;23.380;2022-10-31T16:41:32;32.10;;;10.20;;
6693;SDS011;3384;42.628;23.380;2022-10-31T16:44:04;26.77;;;7.27;;
6693;SDS011;3384;42.628;23.380;2022-10-31T16:46:41;24.00;;;8.63;;
6693;SDS011;3384;42.628;23.380;2022-10-31T16:49:08;30.83;;;7.60;;
6693;SDS011;3384;42.628;23.380;2022-10-31T16:51:36;14.30;;;6.10;;
6693;SDS011;3384;42.628;23.380;2022-10-31T16:54:03;22.23;;;7.30;;
6693;SDS011;3384;42.628;23.380;2022-10-31T16:56:34;12.67;;;5.83;;
6693;SDS011;3384;42.628;23.380;2022-10-31T16:59:06;17.43;;;6.90;;
6693;SDS011;3384;42.628;23.380;2022-10-31T17:01:41;9.63;;;5.23;;
6693;SDS011;3384;42.628;23.380;2022-10-31T17:04:15;13.40;;;4.67;;
6693;SDS011;3384;42.628;23.380;2022-10-31T17:06:42;16.60;;;4.77;;
6693;SDS011;3384;42.628;23.380;2022-10-31T17:09:09;11.13;;;5.30;;
6693;SDS011;3384;42.628;23.380;2022-10-31T17:11:36;14.57;;;5.30;;
6693;SDS011;3384;42.628;23.380;2022-10-31T17:14:07;24.67;;;5.73;;
6693;SDS011;3384;42.628;23.380;2022-10-31T17:16:35;36.90;;;12.10;;
6693;SDS011;3384;42.628;23.380;2022-10-31T17:19:04;18.03;;;8.70;;